Time;durP1;ratioP1;P1;durP2;ratioP2;P2;SDS_P1;SDS_P2;PMS_P1;PMS_P2;Temp;Humidity;BMP_temperature;BMP_pressure;BME280_temperature;BME280_humidity;BME280_pressure;Samples;Min_cycle;Max_cycle;Signal;HPM_P1;HPM_P2
2023/02/07 00:00:27;;;;;;;6.18;3.35;;;;;8.20;103796.00;;;;5083874;28;20203;-75
2023/02/07 00:02:56;;;;;;;8.38;3.90;;;;;8.20;103795.00;;;;5079359;28;20280;-75
2023/02/07 00:05:23;;;;;;;6.65;3.78;;;;;8.20;103796.00;;;;5079629;28;20268;-75
2023/02/07 00:07:51;;;;;;;6.40;3.50;;;;;8.20;103791.00;;;;5088745;28;20194;-75
2023/02/07 00:10:20;;;;;;;10.02;4.00;;;;;8.10;103795.00;;;;5083325;28;20213;-75
2023/02/07 00:12:47;;;;;;;8.98;4.00;;;;;8.10;103781.00;;;;5071647;28;20183;-75
2023/02/07 00:15:14;;;;;;;6.35;3.88;;;;;8.10;103779.00;;;;5086115;28;20242;-75
2023/02/07 00:17:42;;;;;;;7.18;3.60;;;;;8.10;103777.00;;;;5087070;28;20190;-73
2023/02/07 00:20:10;;;;;;;7.60;3.38;;;;;8.10;103784.00;;;;5077012;28;20195;-74
2023/02/07 00:22:38;;;;;;;9.15;3.60;;;;;8.10;103783.00;;;;5069853;28;20213;-73
2023/02/07 00:25:06;;;;;;;7.00;3.83;;;;;8.00;103774.00;;;;5071300;28;20566;-74
2023/02/07 00:27:34;;;;;;;5.78;3.55;;;;;8.00;103780.00;;;;5073986;28;20209;-73
2023/02/07 00:30:01;;;;;;;5.75;3.42;;;;;8.00;103778.00;;;;5073573;28;20188;-73
2023/02/07 00:32:31;;;;;;;7.65;4.13;;;;;8.00;103783.00;;;;5073736;28;20194;-74
2023/02/07 00:34:59;;;;;;;5.75;3.28;;;;;8.00;103775.00;;;;5077105;28;20198;-74
2023/02/07 00:37:27;;;;;;;7.22;3.55;;;;;7.90;103787.00;;;;5077639;28;20201;-74
2023/02/07 00:39:54;;;;;;;7.45;3.55;;;;;7.90;103785.00;;;;5072769;28;20202;-74
2023/02/07 00:42:21;;;;;;;6.03;3.22;;;;;7.90;103778.00;;;;5071967;28;20194;-74
2023/02/07 00:44:50;;;;;;;6.10;3.88;;;;;7.90;103786.00;;;;5072580;28;20198;-74
2023/02/07 00:47:17;;;;;;;5.82;3.25;;;;;7.90;103787.00;;;;5068800;28;20238;-74
2023/02/07 00:49:44;;;;;;;6.28;3.47;;;;;7.90;103787.00;;;;5079899;28;20193;-74
2023/02/07 00:52:12;;;;;;;8.20;3.58;;;;;7.90;103777.00;;;;5079593;28;20190;-74
2023/02/07 00:54:39;;;;;;;6.63;3.42;;;;;7.80;103780.00;;;;5078104;28;20191;-74
2023/02/07 00:57:06;;;;;;;7.10;3.83;;;;;7.80;103786.00;;;;5073297;28;20226;-74
2023/02/07 00:59:33;;;;;;;6.38;3.67;;;;;7.80;103782.00;;;;5078084;28;20202;-74
2023/02/07 01:02:02;;;;;;;5.82;3.70;;;;;7.80;103787.00;;;;5083108;28;20582;-74
2023/02/07 01:04:29;;;;;;;10.45;3.95;;;;;7.80;103787.00;;;;5079717;28;20199;-74
2023/02/07 01:06:57;;;;;;;5.03;3.35;;;;;7.80;103791.00;;;;5071587;28;20202;-74
2023/02/07 01:09:24;;;;;;;6.10;3.45;;;;;7.70;103787.00;;;;5077610;28;20190;-74
2023/02/07 01:11:51;;;;;;;4.00;3.40;;;;;7.70;103782.00;;;;5075875;28;20194;-74
2023/02/07 01:14:18;;;;;;;6.90;4.00;;;;;7.70;103778.00;;;;5073560;28;20195;-74
2023/02/07 01:16:46;;;;;;;6.47;3.40;;;;;7.70;103776.00;;;;5067708;28;20222;-74
2023/02/07 01:19:14;;;;;;;6.28;3.97;;;;;7.70;103784.00;;;;5084862;28;20205;-74
2023/02/07 01:21:42;;;;;;;6.28;3.33;;;;;7.60;103777.00;;;;5073864;28;20194;-74
2023/02/07 01:24:10;;;;;;;7.00;3.97;;;;;7.60;103783.00;;;;5088048;28;20198;-74
2023/02/07 01:26:38;;;;;;;7.53;3.35;;;;;7.60;103785.00;;;;5081049;28;20201;-74
2023/02/07 01:29:06;;;;;;;7.57;3.85;;;;;7.60;103777.00;;;;5086969;28;20202;-74
2023/02/07 01:31:33;;;;;;;6.88;3.72;;;;;7.60;103775.00;;;;5079902;28;20195;-74
2023/02/07 01:34:01;;;;;;;5.88;3.60;;;;;7.60;103779.00;;;;5084199;28;20195;-74
2023/02/07 01:36:30;;;;;;;7.05;3.53;;;;;7.50;103785.00;;;;5074941;28;20613;-74
2023/02/07 01:38:57;;;;;;;8.65;4.25;;;;;7.50;103789.00;;;;5071252;28;20191;-74
2023/02/07 01:41:26;;;;;;;7.30;3.78;;;;;7.50;103793.00;;;;5076611;28;20209;-73
2023/02/07 01:44:00;;;;;;;8.23;4.53;;;;;7.50;103781.00;;;;5082843;28;20201;-74
2023/02/07 01:46:28;;;;;;;8.52;4.50;;;;;7.50;103793.00;;;;5078100;28;20218;-74
2023/02/07 01:49:01;;;;;;;5.28;3.70;;;;;7.50;103794.00;;;;5074075;28;20194;-74
2023/02/07 01:51:31;;;;;;;7.85;4.25;;;;;7.40;103794.00;;;;5078974;28;20688;-74
2023/02/07 01:54:02;;;;;;;8.93;4.18;;;;;7.40;103782.00;;;;5085946;28;20225;-74
2023/02/07 01:56:30;;;;;;;7.93;4.15;;;;;7.40;103785.00;;;;5072719;28;20233;-73
2023/02/07 01:58:57;;;;;;;7.72;4.57;;;;;7.40;103782.00;;;;5089137;28;20194;-74
2023/02/07 02:01:25;;;;;;;8.82;4.82;;;;;7.40;103787.00;;;;5072406;28;20198;-74
2023/02/07 02:03:55;;;;;;;6.15;4.35;;;;;7.40;103779.00;;;;5071209;28;20238;-74
2023/02/07 02:06:27;;;;;;;8.73;4.32;;;;;7.40;103783.00;;;;5073301;28;20199;-74
2023/02/07 02:09:00;;;;;;;9.73;4.50;;;;;7.30;103790.00;;;;5075171;28;20199;-74
2023/02/07 02:12:02;;;;;;;8.32;4.55;;;;;7.20;103795.00;;;;5081874;28;20683;-74
2023/02/07 02:15:03;;;;;;;10.65;4.85;;;;;7.20;103794.00;;;;5073345;28;20281;-74
2023/02/07 02:17:38;;;;;;;8.60;4.55;;;;;7.20;103785.00;;;;5075725;28;20763;-73
2023/02/07 02:20:37;;;;;;;8.50;4.22;;;;;7.10;103783.00;;;;5077401;28;20197;-74
2023/02/07 02:23:13;;;;;;;14.07;4.85;;;;;7.20;103789.00;;;;5076012;28;20198;-74
2023/02/07 02:26:15;;;;;;;6.55;3.85;;;;;7.10;103791.00;;;;5078505;28;21109;-73
2023/02/07 02:29:08;;;;;;;5.32;3.92;;;;;7.10;103787.00;;;;5052770;28;20197;-74
2023/02/07 02:32:06;;;;;;;7.25;4.57;;;;;7.10;103787.00;;;;5076976;28;20199;-74
2023/02/07 02:34:44;;;;;;;8.02;4.60;;;;;7.10;103779.00;;;;5073963;28;20195;-73
2023/02/07 02:37:19;;;;;;;7.15;4.50;;;;;7.10;103778.00;;;;5077861;28;20692;-74
2023/02/07 02:39:54;;;;;;;10.15;5.25;;;;;7.10;103782.00;;;;5075987;28;22415;-74
2023/02/07 02:42:27;;;;;;;6.95;4.55;;;;;7.10;103776.00;;;;5078246;28;20193;-74
2023/02/07 02:44:58;;;;;;;8.30;5.32;;;;;7.10;103783.00;;;;5077844;28;20194;-74
2023/02/07 02:47:27;;;;;;;7.90;5.00;;;;;7.10;103773.00;;;;5077108;28;20260;-73
2023/02/07 02:49:57;;;;;;;9.07;5.10;;;;;7.10;103782.00;;;;5077984;28;20202;-74
2023/02/07 02:52:24;;;;;;;7.68;5.20;;;;;7.10;103792.00;;;;5079496;28;20202;-74
2023/02/07 02:54:51;;;;;;;10.93;4.90;;;;;7.00;103790.00;;;;5082387;28;21027;-74
2023/02/07 02:57:48;;;;;;;10.00;5.97;;;;;6.90;103784.00;;;;5088105;28;20601;-74
2023/02/07 03:00:48;;;;;;;7.00;4.97;;;;;6.90;103768.00;;;;5076775;28;20232;-74
2023/02/07 03:03:39;;;;;;;7.78;4.18;;;;;6.90;103775.00;;;;5069796;28;21468;-74
2023/02/07 03:06:21;;;;;;;8.10;4.25;;;;;6.90;103786.00;;;;5079365;28;20206;-74
2023/02/07 03:08:58;;;;;;;5.82;4.10;;;;;6.90;103792.00;;;;5075268;28;20203;-74
2023/02/07 03:11:26;;;;;;;9.35;4.90;;;;;6.90;103784.00;;;;5076274;28;20209;-74
2023/02/07 03:14:02;;;;;;;7.25;4.65;;;;;6.90;103790.00;;;;5078031;28;20190;-74
2023/02/07 03:16:35;;;;;;;6.28;4.38;;;;;6.90;103781.00;;;;5076328;28;20217;-73
2023/02/07 03:19:07;;;;;;;11.32;5.65;;;;;6.90;103782.00;;;;5074485;28;20231;-73
2023/02/07 03:21:38;;;;;;;7.72;5.10;;;;;6.90;103785.00;;;;5081103;28;20195;-75
2023/02/07 03:24:09;;;;;;;7.03;4.97;;;;;6.90;103775.00;;;;5077552;28;20207;-74
2023/02/07 03:26:38;;;;;;;7.93;4.60;;;;;6.90;103780.00;;;;5077596;28;20205;-74
2023/02/07 03:29:08;;;;;;;6.57;4.43;;;;;6.80;103773.00;;;;5075536;28;20195;-74
2023/02/07 03:31:39;;;;;;;6.72;4.25;;;;;6.80;103781.00;;;;5075311;28;20198;-74
2023/02/07 03:34:11;;;;;;;7.68;4.72;;;;;6.80;103772.00;;;;5075304;28;20195;-75
2023/02/07 03:36:46;;;;;;;7.78;4.50;;;;;6.80;103765.00;;;;5075572;28;20210;-74
2023/02/07 03:39:13;;;;;;;8.85;4.65;;;;;6.80;103764.00;;;;5075614;28;20197;-75
2023/02/07 03:41:44;;;;;;;5.82;5.20;;;;;6.80;103757.00;;;;5076620;28;20734;-74
2023/02/07 03:44:14;;;;;;;6.40;4.40;;;;;6.80;103752.00;;;;5058038;28;20198;-74
2023/02/07 03:46:42;;;;;;;5.97;4.50;;;;;6.80;103749.00;;;;5056177;28;20226;-74
2023/02/07 03:49:10;;;;;;;6.85;4.72;;;;;6.80;103753.00;;;;5056543;28;20206;-74
2023/02/07 03:51:37;;;;;;;6.43;3.95;;;;;6.70;103760.00;;;;5057267;28;20245;-74
2023/02/07 03:54:06;;;;;;;7.18;4.43;;;;;6.70;103762.00;;;;5057066;28;20568;-74
2023/02/07 03:56:35;;;;;;;6.63;4.18;;;;;6.70;103761.00;;;;5055030;28;20231;-75
2023/02/07 03:59:02;;;;;;;10.93;4.88;;;;;6.70;103768.00;;;;5054031;28;20665;-74
2023/02/07 04:01:30;;;;;;;8.02;4.80;;;;;6.70;103759.00;;;;5053682;28;20191;-74
2023/02/07 04:03:57;;;;;;;7.40;4.65;;;;;6.70;103754.00;;;;5059651;28;20199;-74
2023/02/07 04:06:24;;;;;;;9.73;5.47;;;;;6.70;103761.00;;;;5056317;28;20882;-74
2023/02/07 04:08:51;;;;;;;7.45;5.28;;;;;6.70;103761.00;;;;5052037;28;20628;-74
2023/02/07 04:11:20;;;;;;;7.88;4.63;;;;;6.70;103759.00;;;;5055856;28;20198;-74
2023/02/07 04:13:47;;;;;;;8.70;4.57;;;;;6.70;103746.00;;;;5058324;28;20206;-74
2023/02/07 04:16:14;;;;;;;9.55;5.25;;;;;6.70;103757.00;;;;5058597;28;20214;-74
2023/02/07 04:18:42;;;;;;;10.65;5.78;;;;;6.70;103758.00;;;;5061634;28;20394;-74
2023/02/07 04:21:09;;;;;;;9.00;4.88;;;;;6.70;103757.00;;;;5055299;28;20209;-74
2023/02/07 04:23:37;;;;;;;7.10;4.88;;;;;6.70;103762.00;;;;5064892;28;20202;-74
2023/02/07 04:26:05;;;;;;;8.85;5.05;;;;;6.60;103755.00;;;;5058868;28;20283;-74
2023/02/07 04:28:33;;;;;;;6.30;4.50;;;;;6.60;103761.00;;;;5061073;28;20278;-74
2023/02/07 04:31:01;;;;;;;11.20;5.38;;;;;6.60;103757.00;;;;5057916;28;20199;-74
2023/02/07 04:33:28;;;;;;;8.40;4.43;;;;;6.60;103758.00;;;;5064148;28;20198;-74
2023/02/07 04:35:56;;;;;;;9.80;5.13;;;;;6.60;103755.00;;;;5052338;28;20213;-74
2023/02/07 04:38:24;;;;;;;8.10;5.13;;;;;6.60;103755.00;;;;5057883;28;20230;-75
2023/02/07 04:40:51;;;;;;;7.10;4.40;;;;;6.60;103755.00;;;;5052014;28;20361;-75
2023/02/07 04:43:18;;;;;;;10.07;5.22;;;;;6.50;103751.00;;;;5065662;28;20210;-74
2023/02/07 04:45:48;;;;;;;8.00;5.10;;;;;6.50;103760.00;;;;5059342;28;20213;-73
2023/02/07 04:48:16;;;;;;;8.18;3.97;;;;;6.50;103754.00;;;;5061320;28;20208;-72
2023/02/07 04:50:43;;;;;;;7.13;4.53;;;;;6.50;103748.00;;;;5056511;28;20192;-73
2023/02/07 04:53:11;;;;;;;8.45;4.65;;;;;6.50;103751.00;;;;5059990;28;20198;-73
2023/02/07 04:55:39;;;;;;;6.53;5.18;;;;;6.50;103750.00;;;;5063669;28;20202;-73
2023/02/07 04:58:07;;;;;;;7.93;5.20;;;;;6.50;103745.00;;;;5057839;28;20230;-72
2023/02/07 05:00:35;;;;;;;6.28;4.50;;;;;6.40;103742.00;;;;5054393;28;20245;-72
2023/02/07 05:03:03;;;;;;;6.70;4.53;;;;;6.40;103749.00;;;;5057912;28;20198;-73
2023/02/07 05:05:31;;;;;;;6.70;4.90;;;;;6.40;103761.00;;;;5056161;28;20206;-73
2023/02/07 05:07:58;;;;;;;7.93;5.00;;;;;6.40;103747.00;;;;5048811;28;20208;-73
2023/02/07 05:10:25;;;;;;;8.80;5.68;;;;;6.40;103746.00;;;;5054464;28;20199;-72
2023/02/07 05:12:52;;;;;;;9.68;4.93;;;;;6.40;103745.00;;;;5055586;28;20198;-73
2023/02/07 05:15:20;;;;;;;8.88;4.63;;;;;6.40;103754.00;;;;5056468;28;20192;-73
2023/02/07 05:17:47;;;;;;;6.55;4.88;;;;;6.40;103755.00;;;;5060167;28;20233;-73
2023/02/07 05:20:17;;;;;;;7.95;4.80;;;;;6.40;103766.00;;;;5057178;28;20203;-73
2023/02/07 05:22:44;;;;;;;6.28;4.45;;;;;6.40;103761.00;;;;5055231;28;20195;-73
2023/02/07 05:25:12;;;;;;;9.10;5.75;;;;;6.30;103764.00;;;;5058271;28;20195;-73
2023/02/07 05:27:39;;;;;;;7.95;5.10;;;;;6.30;103774.00;;;;5059097;28;20203;-74
2023/02/07 05:30:10;;;;;;;10.65;5.43;;;;;6.30;103769.00;;;;5057713;28;20198;-74
2023/02/07 05:35:23;;;;;;;8.18;5.15;;;;;6.30;103768.00;;;;5057600;28;20689;-73
2023/02/07 05:37:50;;;;;;;9.13;5.38;;;;;6.30;103783.00;;;;5056432;28;20219;-73
2023/02/07 05:40:18;;;;;;;8.68;5.20;;;;;6.30;103786.00;;;;5057077;28;20203;-73
2023/02/07 05:42:45;;;;;;;7.32;4.95;;;;;6.20;103788.00;;;;5059003;28;21117;-74
2023/02/07 05:45:12;;;;;;;11.02;5.93;;;;;6.20;103784.00;;;;5054562;28;20230;-73
2023/02/07 05:47:40;;;;;;;7.95;5.07;;;;;6.20;103781.00;;;;5056364;28;20228;-73
2023/02/07 05:50:08;;;;;;;7.93;5.07;;;;;6.20;103783.00;;;;5053782;28;20676;-73
2023/02/07 05:52:36;;;;;;;8.27;5.07;;;;;6.20;103792.00;;;;5051513;28;20999;-73
2023/02/07 05:55:04;;;;;;;8.82;5.38;;;;;6.20;103785.00;;;;5056508;28;20713;-74
2023/02/07 05:57:32;;;;;;;9.07;5.47;;;;;6.20;103786.00;;;;5056391;28;20214;-73
2023/02/07 05:59:59;;;;;;;11.23;5.93;;;;;6.20;103787.00;;;;5056130;28;20207;-73
2023/02/07 06:02:27;;;;;;;8.32;5.25;;;;;6.20;103794.00;;;;5056700;28;20210;-73
2023/02/07 06:04:54;;;;;;;7.85;4.95;;;;;6.20;103783.00;;;;5063768;28;20669;-73
2023/02/07 06:07:21;;;;;;;7.88;4.93;;;;;6.20;103793.00;;;;5053827;28;20203;-73
2023/02/07 06:09:50;;;;;;;6.85;5.15;;;;;6.20;103795.00;;;;5058811;28;20198;-73
2023/02/07 06:12:18;;;;;;;8.13;5.05;;;;;6.20;103783.00;;;;5060457;28;20202;-74
2023/02/07 06:14:45;;;;;;;7.93;4.90;;;;;6.20;103785.00;;;;5060141;28;20558;-74
2023/02/07 06:17:12;;;;;;;11.10;6.47;;;;;6.10;103787.00;;;;5062904;28;20462;-74
2023/02/07 06:19:40;;;;;;;9.23;6.18;;;;;6.20;103790.00;;;;5053359;28;20980;-74
2023/02/07 06:22:07;;;;;;;7.90;5.80;;;;;6.20;103790.00;;;;5058071;28;20206;-74
2023/02/07 06:24:34;;;;;;;8.35;4.85;;;;;6.20;103782.00;;;;5051100;28;20199;-74
2023/02/07 06:27:03;;;;;;;11.05;5.80;;;;;6.10;103786.00;;;;5067906;28;20202;-75
2023/02/07 06:29:30;;;;;;;11.45;6.38;;;;;6.10;103790.00;;;;5053074;28;20553;-74
2023/02/07 06:31:58;;;;;;;10.05;6.15;;;;;6.20;103788.00;;;;5050395;28;20207;-75
2023/02/07 06:34:25;;;;;;;9.30;6.25;;;;;6.20;103787.00;;;;5061722;28;20202;-75
2023/02/07 06:36:52;;;;;;;11.60;6.88;;;;;6.20;103784.00;;;;5049952;28;20216;-75
2023/02/07 06:39:20;;;;;;;13.90;6.93;;;;;6.10;103778.00;;;;5051771;28;20196;-75
2023/02/07 06:41:47;;;;;;;11.55;6.18;;;;;6.20;103776.00;;;;5055556;28;20195;-75
2023/02/07 06:44:16;;;;;;;11.98;7.28;;;;;6.10;103786.00;;;;5066050;28;20207;-75
2023/02/07 06:46:43;;;;;;;9.40;5.95;;;;;6.20;103787.00;;;;5068298;28;20226;-75
2023/02/07 06:49:11;;;;;;;14.27;8.02;;;;;6.20;103789.00;;;;5058002;28;20215;-75
2023/02/07 06:51:38;;;;;;;14.82;7.32;;;;;6.20;103796.00;;;;5056968;28;20199;-75
2023/02/07 06:54:08;;;;;;;12.07;7.07;;;;;6.20;103792.00;;;;5059430;28;20207;-74
2023/02/07 06:56:36;;;;;;;10.75;6.75;;;;;6.20;103790.00;;;;5060957;28;20214;-75
2023/02/07 06:59:04;;;;;;;11.68;7.40;;;;;6.20;103794.00;;;;5058371;28;20220;-74
2023/02/07 07:01:32;;;;;;;14.20;7.65;;;;;6.20;103794.00;;;;5062130;28;20196;-75
2023/02/07 07:03:59;;;;;;;15.57;7.30;;;;;6.20;103799.00;;;;5062507;28;20207;-75
2023/02/07 07:06:27;;;;;;;14.48;7.72;;;;;6.20;103800.00;;;;5052577;28;20195;-74
2023/02/07 07:08:54;;;;;;;12.73;7.43;;;;;6.30;103806.00;;;;5060277;28;20191;-74
2023/02/07 07:11:22;;;;;;;13.02;7.03;;;;;6.30;103804.00;;;;5054898;28;20216;-74
2023/02/07 07:13:49;;;;;;;17.05;8.23;;;;;6.30;103798.00;;;;5049958;28;20219;-74
2023/02/07 07:16:17;;;;;;;14.82;8.00;;;;;6.30;103807.00;;;;5068970;28;20269;-74
2023/02/07 07:18:45;;;;;;;13.95;7.70;;;;;6.30;103805.00;;;;5056998;28;20223;-73
2023/02/07 07:21:12;;;;;;;15.30;7.72;;;;;6.30;103805.00;;;;5053632;28;20214;-75
2023/02/07 07:23:40;;;;;;;18.40;8.60;;;;;6.30;103804.00;;;;5049957;28;20203;-74
2023/02/07 07:26:07;;;;;;;12.88;7.82;;;;;6.40;103805.00;;;;5060308;28;20210;-74
2023/02/07 07:28:34;;;;;;;15.35;8.18;;;;;6.30;103802.00;;;;5058021;28;20204;-74
2023/02/07 07:31:06;;;;;;;15.27;9.30;;;;;6.30;103812.00;;;;5063568;28;20198;-74
2023/02/07 07:33:34;;;;;;;15.60;8.30;;;;;6.40;103807.00;;;;5057773;28;20288;-74
2023/02/07 07:36:03;;;;;;;18.88;9.10;;;;;6.40;103814.00;;;;5066206;28;20206;-74
2023/02/07 07:38:31;;;;;;;14.55;8.20;;;;;6.40;103810.00;;;;5057046;28;20230;-74
2023/02/07 07:40:59;;;;;;;13.68;8.27;;;;;6.40;103818.00;;;;5064146;28;20203;-74
2023/02/07 07:43:26;;;;;;;15.70;8.00;;;;;6.40;103815.00;;;;5069084;28;20199;-74
2023/02/07 07:45:55;;;;;;;15.25;9.02;;;;;6.50;103814.00;;;;5068061;28;20203;-74
2023/02/07 07:48:23;;;;;;;18.38;9.10;;;;;6.50;103806.00;;;;5051133;28;20566;-74
2023/02/07 07:50:51;;;;;;;18.50;9.75;;;;;6.50;103808.00;;;;5062914;28;20191;-74
2023/02/07 07:53:20;;;;;;;15.68;8.70;;;;;6.50;103810.00;;;;5064564;28;20203;-74
2023/02/07 07:55:50;;;;;;;18.50;9.25;;;;;6.50;103803.00;;;;5061793;28;20195;-74
2023/02/07 07:58:18;;;;;;;17.48;9.05;;;;;6.60;103810.00;;;;5061618;28;20231;-74
2023/02/07 08:00:46;;;;;;;17.23;8.27;;;;;6.60;103807.00;;;;5049164;28;20192;-74
2023/02/07 08:03:13;;;;;;;15.98;9.15;;;;;6.70;103805.00;;;;5049066;28;20290;-74
2023/02/07 08:05:41;;;;;;;15.45;8.70;;;;;6.70;103811.00;;;;5048626;28;20211;-74
2023/02/07 08:08:08;;;;;;;16.38;8.40;;;;;6.70;103806.00;;;;5051238;28;20208;-74
2023/02/07 08:10:37;;;;;;;13.35;8.00;;;;;6.80;103812.00;;;;5051748;28;20199;-74
2023/02/07 08:13:04;;;;;;;15.65;8.27;;;;;6.80;103811.00;;;;5058664;28;20708;-74
2023/02/07 08:15:32;;;;;;;16.65;8.63;;;;;6.80;103809.00;;;;5056049;28;20199;-74
2023/02/07 08:17:59;;;;;;;14.25;8.23;;;;;6.90;103806.00;;;;5056279;28;20219;-74
2023/02/07 08:20:27;;;;;;;16.63;8.63;;;;;6.90;103813.00;;;;5053199;28;20206;-74
2023/02/07 08:22:56;;;;;;;17.33;9.00;;;;;7.00;103809.00;;;;5059450;28;20199;-74
2023/02/07 08:25:23;;;;;;;16.42;8.45;;;;;7.00;103814.00;;;;5052195;28;20203;-74
2023/02/07 08:27:52;;;;;;;17.90;9.30;;;;;7.00;103820.00;;;;5053879;28;20196;-74
2023/02/07 08:30:20;;;;;;;14.80;8.75;;;;;7.10;103816.00;;;;5048910;28;20203;-74
2023/02/07 08:32:47;;;;;;;15.60;8.80;;;;;7.10;103814.00;;;;5064227;28;20218;-74
2023/02/07 08:35:14;;;;;;;16.48;9.43;;;;;7.10;103812.00;;;;5055658;28;20206;-74
2023/02/07 08:37:42;;;;;;;16.75;8.98;;;;;7.10;103814.00;;;;5066806;28;20191;-74
2023/02/07 08:40:11;;;;;;;16.02;9.55;;;;;7.20;103824.00;;;;5059833;28;20200;-74
2023/02/07 08:42:39;;;;;;;14.38;9.15;;;;;7.20;103815.00;;;;5052217;28;20199;-74
2023/02/07 08:45:09;;;;;;;16.48;9.98;;;;;7.20;103818.00;;;;5062632;28;20296;-74
2023/02/07 08:47:36;;;;;;;13.73;8.27;;;;;7.20;103813.00;;;;5055060;28;20231;-74
2023/02/07 08:50:04;;;;;;;15.75;9.30;;;;;7.20;103817.00;;;;5053270;28;20204;-74
2023/02/07 08:52:32;;;;;;;15.32;8.07;;;;;7.30;103807.00;;;;5047335;28;20196;-74
2023/02/07 08:54:59;;;;;;;14.60;8.25;;;;;7.30;103811.00;;;;5053263;28;20196;-74
2023/02/07 08:57:27;;;;;;;13.70;9.02;;;;;7.30;103813.00;;;;5059404;28;20226;-74
2023/02/07 08:59:54;;;;;;;15.27;8.88;;;;;7.30;103824.00;;;;5062953;28;20222;-74
2023/02/07 09:02:23;;;;;;;15.02;9.00;;;;;7.30;103812.00;;;;5063490;28;20202;-75
2023/02/07 09:04:50;;;;;;;12.32;7.80;;;;;7.40;103820.00;;;;5051798;28;20199;-75
2023/02/07 09:07:19;;;;;;;13.40;8.23;;;;;7.40;103817.00;;;;5052640;28;20195;-74
2023/02/07 09:09:46;;;;;;;15.00;8.20;;;;;7.40;103812.00;;;;5050201;28;20579;-74
2023/02/07 09:12:13;;;;;;;12.98;7.57;;;;;7.50;103816.00;;;;5055970;28;20203;-74
2023/02/07 09:14:41;;;;;;;11.35;7.53;;;;;7.50;103814.00;;;;5052444;28;20199;-74
2023/02/07 09:17:09;;;;;;;11.23;7.45;;;;;7.50;103822.00;;;;5059095;28;20199;-74
2023/02/07 09:19:37;;;;;;;10.15;6.43;;;;;7.50;103817.00;;;;5066063;28;20222;-74
2023/02/07 09:22:05;;;;;;;13.55;7.57;;;;;7.60;103821.00;;;;5048171;28;21010;-74
2023/02/07 09:24:33;;;;;;;12.18;8.20;;;;;7.60;103832.00;;;;5061803;28;20191;-75
2023/02/07 09:27:01;;;;;;;14.30;7.75;;;;;7.60;103817.00;;;;5050872;28;20678;-74
2023/02/07 09:29:28;;;;;;;14.10;7.85;;;;;7.70;103821.00;;;;5054731;28;20206;-75
2023/02/07 09:31:55;;;;;;;14.30;7.63;;;;;7.70;103813.00;;;;5060273;28;20195;-74
2023/02/07 09:34:22;;;;;;;13.60;7.85;;;;;7.80;103822.00;;;;5062367;28;20195;-75
2023/02/07 09:36:51;;;;;;;11.55;7.97;;;;;7.80;103814.00;;;;5053509;28;20200;-75
2023/02/07 09:39:19;;;;;;;10.07;6.55;;;;;7.90;103814.00;;;;5055385;28;20226;-75
2023/02/07 09:41:55;;;;;;;11.68;7.60;;;;;7.90;103820.00;;;;5060196;28;20199;-75
2023/02/07 09:44:28;;;;;;;12.00;7.55;;;;;8.00;103820.00;;;;5058769;28;20683;-75
2023/02/07 09:47:01;;;;;;;11.55;7.40;;;;;8.00;103818.00;;;;5052047;28;20239;-75
2023/02/07 09:49:35;;;;;;;10.13;6.53;;;;;8.00;103825.00;;;;5056614;28;20211;-76
2023/02/07 09:52:06;;;;;;;9.00;6.75;;;;;8.00;103822.00;;;;5052341;28;20196;-75
2023/02/07 09:54:40;;;;;;;15.05;7.18;;;;;8.10;103822.00;;;;5062085;28;20196;-76
2023/02/07 09:57:16;;;;;;;11.70;7.07;;;;;8.10;103825.00;;;;5050060;28;20215;-76
2023/02/07 09:59:50;;;;;;;10.70;7.03;;;;;8.20;103828.00;;;;5057584;28;20219;-74
2023/02/07 10:02:23;;;;;;;13.10;7.57;;;;;8.20;103820.00;;;;5066519;28;20199;-74
2023/02/07 10:04:54;;;;;;;11.77;7.25;;;;;8.30;103820.00;;;;5052783;28;20199;-74
2023/02/07 10:07:23;;;;;;;11.15;7.13;;;;;8.30;103818.00;;;;5064781;28;20205;-74
2023/02/07 10:09:50;;;;;;;11.82;7.78;;;;;8.40;103821.00;;;;5056821;28;20680;-74
2023/02/07 10:12:32;;;;;;;11.27;7.20;;;;;8.40;103826.00;;;;5053139;28;20203;-74
2023/02/07 10:15:27;;;;;;;13.43;8.18;;;;;8.50;103828.00;;;;5058875;28;20200;-75
2023/02/07 10:18:15;;;;;;;11.50;6.97;;;;;8.60;103824.00;;;;5051839;28;20206;-74
2023/02/07 10:20:51;;;;;;;10.15;6.82;;;;;8.70;103832.00;;;;5062473;28;20187;-74
2023/02/07 10:23:37;;;;;;;11.63;7.28;;;;;8.70;103845.00;;;;5068522;28;20215;-74
2023/02/07 10:26:16;;;;;;;11.52;5.70;;;;;8.90;103857.00;;;;5061553;28;20198;-74
2023/02/07 10:29:06;;;;;;;11.60;7.10;;;;;8.90;103849.00;;;;5053939;28;20210;-74
2023/02/07 10:31:36;;;;;;;8.73;6.10;;;;;9.10;103834.00;;;;5064735;28;20195;-75
2023/02/07 10:34:13;;;;;;;9.90;6.10;;;;;9.10;103847.00;;;;5055236;28;20196;-74
2023/02/07 10:36:45;;;;;;;10.52;6.57;;;;;9.30;103835.00;;;;5050953;28;20681;-75
2023/02/07 10:39:19;;;;;;;7.95;5.43;;;;;9.30;103839.00;;;;5057018;28;20223;-74
2023/02/07 10:41:46;;;;;;;8.82;5.47;;;;;9.40;103841.00;;;;5069651;28;20198;-74
2023/02/07 10:44:19;;;;;;;8.52;6.03;;;;;9.50;103837.00;;;;5068270;28;20572;-74
2023/02/07 10:46:50;;;;;;;8.57;5.65;;;;;9.60;103835.00;;;;5062979;28;20223;-74
2023/02/07 10:49:21;;;;;;;8.80;5.75;;;;;9.70;103829.00;;;;5063240;28;20214;-74
2023/02/07 10:51:48;;;;;;;9.05;5.63;;;;;9.80;103832.00;;;;5056533;28;20195;-74
2023/02/07 10:54:19;;;;;;;8.60;5.20;;;;;9.90;103834.00;;;;5049300;28;20196;-74
2023/02/07 10:56:49;;;;;;;10.57;5.47;;;;;10.00;103841.00;;;;5057566;28;20215;-74
2023/02/07 10:59:37;;;;;;;8.10;5.22;;;;;10.00;103849.00;;;;5051709;28;20223;-74
2023/02/07 11:02:38;;;;;;;7.47;5.70;;;;;10.00;103851.00;;;;5057192;28;20211;-74
2023/02/07 11:05:21;;;;;;;7.75;4.95;;;;;10.20;103856.00;;;;5067813;28;20227;-74
2023/02/07 11:07:58;;;;;;;6.20;4.53;;;;;10.30;103850.00;;;;5064629;28;20202;-74
2023/02/07 11:10:31;;;;;;;7.63;4.70;;;;;10.40;103849.00;;;;5048886;28;20226;-74
2023/02/07 11:12:59;;;;;;;6.70;4.80;;;;;10.50;103840.00;;;;5065426;28;20265;-74
2023/02/07 11:15:36;;;;;;;8.23;4.85;;;;;10.50;103845.00;;;;5050386;28;20207;-74
2023/02/07 11:18:04;;;;;;;9.63;6.18;;;;;10.60;103835.00;;;;5062251;28;20203;-74
2023/02/07 11:20:35;;;;;;;7.55;5.22;;;;;10.70;103842.00;;;;5054962;28;20227;-74
2023/02/07 11:23:06;;;;;;;8.90;4.57;;;;;10.80;103838.00;;;;5049386;28;20192;-74
2023/02/07 11:25:38;;;;;;;6.28;4.18;;;;;10.80;103836.00;;;;5062562;28;20199;-74
2023/02/07 11:28:06;;;;;;;6.43;4.03;;;;;10.90;103839.00;;;;5054461;28;20207;-74
2023/02/07 11:30:36;;;;;;;8.90;5.03;;;;;10.90;103843.00;;;;5052800;28;20210;-74
2023/02/07 11:33:14;;;;;;;7.72;4.68;;;;;11.00;103840.00;;;;5056203;28;20195;-74
2023/02/07 11:36:03;;;;;;;6.85;4.90;;;;;11.00;103836.00;;;;5060688;28;20297;-74
2023/02/07 11:38:31;;;;;;;6.35;4.57;;;;;11.10;103831.00;;;;5061123;28;20291;-74
2023/02/07 11:41:05;;;;;;;8.93;5.72;;;;;11.20;103830.00;;;;5067796;28;20202;-74
2023/02/07 11:43:34;;;;;;;7.28;4.53;;;;;11.20;103825.00;;;;5067113;28;20203;-75
2023/02/07 11:46:05;;;;;;;8.70;5.50;;;;;11.30;103826.00;;;;5053092;28;20253;-74
2023/02/07 11:48:38;;;;;;;8.05;4.97;;;;;11.30;103820.00;;;;5048924;28;20204;-74
2023/02/07 11:51:09;;;;;;;6.28;4.35;;;;;11.30;103810.00;;;;5053832;28;20207;-74
2023/02/07 11:53:39;;;;;;;7.30;4.70;;;;;11.40;103815.00;;;;5062670;28;20202;-74
2023/02/07 11:56:22;;;;;;;7.25;5.07;;;;;11.40;103801.00;;;;5069111;28;20225;-74
2023/02/07 11:58:51;;;;;;;6.38;4.90;;;;;11.50;103810.00;;;;5051112;28;20227;-74
2023/02/07 12:01:24;;;;;;;6.57;4.53;;;;;11.60;103803.00;;;;5068577;28;20583;-74
2023/02/07 12:03:59;;;;;;;15.13;4.82;;;;;11.60;103802.00;;;;5067391;28;20203;-74
2023/02/07 12:06:32;;;;;;;7.13;4.70;;;;;11.60;103800.00;;;;5058435;28;20275;-74
2023/02/07 12:09:01;;;;;;;7.70;4.95;;;;;11.70;103798.00;;;;5049023;28;20203;-74
2023/02/07 12:11:35;;;;;;;7.07;4.25;;;;;11.80;103789.00;;;;5067012;28;20206;-74
2023/02/07 12:14:10;;;;;;;7.50;4.55;;;;;11.80;103788.00;;;;5068089;28;20824;-74
2023/02/07 12:16:42;;;;;;;8.43;5.28;;;;;11.90;103787.00;;;;5068300;28;20211;-75
2023/02/07 12:19:18;;;;;;;5.78;3.92;;;;;11.90;103778.00;;;;5063220;28;20592;-74
2023/02/07 12:21:56;;;;;;;6.53;4.22;;;;;11.90;103785.00;;;;5052851;28;20737;-75
2023/02/07 12:24:29;;;;;;;6.07;4.32;;;;;12.00;103791.00;;;;5050941;28;20211;-75
2023/02/07 12:27:02;;;;;;;9.98;4.75;;;;;12.00;103787.00;;;;5063507;28;20202;-74
2023/02/07 12:29:41;;;;;;;7.03;4.22;;;;;12.10;103785.00;;;;5057693;28;20734;-74
2023/02/07 12:32:22;;;;;;;6.53;3.92;;;;;12.20;103791.00;;;;5063535;28;20584;-75